Terminal Aerodrome Forecast
Issued by NWS Twin Cities, MN

Home | Current Version | Previous Version | Text Only | Print | Product List | Glossary Off
Versions: 1 2 3 4 5 6 7 8 9 10 11 12 13 14 15 16 17 18 19 20 21 22 23 24 25 26

714
FTUS43 KMPX 222332
TAFMSP
TAF
KMSP 222332Z 2300/2406 31006KT 6SM BR OVC009
     FM230300 29006KT 4SM BR OVC006
     FM231500 28004KT 6SM BR OVC009
     FM231800 27003KT P6SM OVC015
     FM232100 VRB03KT P6SM OVC022=

USA.gov is the U.S. government's official web portal to all federal, state and local government web resources and services.